createdAt,value
2022-10-23T00:02:16.816Z,9.05
2022-10-23T00:04:47.314Z,7.50
2022-10-23T00:07:17.776Z,7.17
2022-10-23T00:09:48.288Z,7.17
2022-10-23T00:12:18.663Z,7.35
2022-10-23T00:14:49.044Z,8.55
2022-10-23T00:17:19.429Z,7.85
2022-10-23T00:19:49.795Z,7.30
2022-10-23T00:22:20.187Z,8.53
2022-10-23T00:24:50.561Z,9.28
2022-10-23T00:27:21.187Z,7.45
2022-10-23T00:29:51.544Z,7.60
2022-10-23T00:32:21.975Z,8.20
2022-10-23T00:34:52.418Z,8.33
2022-10-23T00:37:22.965Z,8.65
2022-10-23T00:39:53.491Z,8.38
2022-10-23T00:42:23.959Z,8.00
2022-10-23T00:44:57.433Z,7.53
2022-10-23T00:47:27.886Z,6.45
2022-10-23T00:50:00.229Z,7.35
2022-10-23T00:52:31.635Z,6.90
2022-10-23T00:55:02.795Z,7.35
2022-10-23T00:57:33.226Z,6.62
2022-10-23T01:00:03.925Z,6.08
2022-10-23T01:02:34.366Z,6.83
2022-10-23T01:05:04.923Z,6.40
2022-10-23T01:07:38.392Z,6.08
2022-10-23T01:10:18.225Z,6.05
2022-10-23T01:13:00.703Z,6.12
2022-10-23T01:15:36.777Z,6.10
2022-10-23T01:18:19.167Z,5.70
2022-10-23T01:20:58.378Z,6.60
2022-10-23T01:24:05.803Z,6.45
2022-10-23T01:26:48.075Z,6.08
2022-10-23T01:29:30.618Z,5.97
2022-10-23T01:32:06.784Z,5.72
2022-10-23T01:34:43.383Z,6.10
2022-10-23T01:37:16.979Z,5.20
2022-10-23T01:39:50.784Z,5.62
2022-10-23T01:42:24.341Z,5.90
2022-10-23T01:45:01.135Z,5.75
2022-10-23T01:47:34.871Z,5.80
2022-10-23T01:50:07.136Z,6.40
2022-10-23T01:52:38.512Z,6.10
2022-10-23T01:55:11.817Z,7.10
2022-10-23T01:57:45.330Z,6.12
2022-10-23T02:00:18.338Z,6.70
2022-10-23T02:02:51.369Z,6.10
2022-10-23T02:05:27.759Z,6.33
2022-10-23T02:07:59.270Z,6.25
2022-10-23T02:10:41.837Z,7.03
2022-10-23T02:13:26.948Z,6.65
2022-10-23T02:16:06.088Z,7.30
2022-10-23T02:18:57.217Z,6.58
2022-10-23T02:21:56.218Z,6.75
2022-10-23T02:24:35.457Z,6.50
2022-10-23T02:27:11.440Z,6.35
2022-10-23T02:29:47.947Z,6.58
2022-10-23T02:32:20.876Z,6.10
2022-10-23T02:34:51.729Z,6.22
2022-10-23T02:39:53.785Z,6.70
2022-10-23T02:42:35.793Z,6.30
2022-10-23T02:45:24.521Z,6.35
2022-10-23T02:47:58.015Z,6.72
2022-10-23T02:50:46.732Z,6.72
2022-10-23T02:53:35.252Z,6.62
2022-10-23T02:56:16.973Z,8.33
2022-10-23T02:58:59.246Z,7.50
2022-10-23T03:01:32.863Z,7.55
2022-10-23T03:04:06.157Z,9.08
2022-10-23T03:06:36.993Z,7.05
2022-10-23T03:09:10.151Z,7.80
2022-10-23T03:11:40.557Z,7.03
2022-10-23T03:14:13.406Z,7.00
2022-10-23T03:16:43.855Z,7.62
2022-10-23T03:19:14.300Z,6.47
2022-10-23T03:21:44.815Z,6.85
2022-10-23T03:24:15.374Z,7.40
2022-10-23T03:26:45.697Z,7.03
2022-10-23T03:29:16.062Z,7.53
2022-10-23T03:31:46.445Z,6.92
2022-10-23T03:34:18.313Z,6.87
2022-10-23T03:36:48.873Z,7.83
2022-10-23T03:39:19.339Z,7.60
2022-10-23T03:41:50.115Z,7.97
2022-10-23T03:44:20.501Z,8.60
2022-10-23T03:46:50.899Z,8.33
2022-10-23T03:49:21.353Z,7.60
2022-10-23T03:51:52.913Z,8.15
2022-10-23T03:54:25.038Z,8.23
2022-10-23T03:56:57.572Z,7.58
2022-10-23T03:59:28.628Z,8.28
2022-10-23T04:01:59.035Z,7.92
2022-10-23T04:04:29.455Z,7.20
2022-10-23T04:06:59.836Z,7.78
2022-10-23T04:09:30.499Z,7.65
2022-10-23T04:12:00.825Z,7.75
2022-10-23T04:14:31.560Z,8.00
2022-10-23T04:17:01.959Z,8.08
2022-10-23T04:19:32.329Z,7.25
2022-10-23T04:22:02.738Z,8.13
2022-10-23T04:24:33.227Z,7.85
2022-10-23T04:27:03.793Z,8.30
2022-10-23T04:29:34.272Z,7.65
2022-10-23T04:32:04.652Z,8.13
2022-10-23T04:34:35.173Z,8.98
2022-10-23T04:37:05.608Z,9.00
2022-10-23T04:39:35.859Z,8.10
2022-10-23T04:42:06.262Z,8.08
2022-10-23T04:44:36.643Z,9.25
2022-10-23T04:47:07.041Z,7.87
2022-10-23T04:49:37.439Z,9.10
2022-10-23T04:52:07.857Z,8.13
2022-10-23T04:54:39.386Z,7.95
2022-10-23T04:57:09.787Z,8.30
2022-10-23T04:59:40.075Z,8.43
2022-10-23T05:02:10.511Z,9.68
2022-10-23T05:04:40.985Z,7.95
2022-10-23T05:07:11.390Z,8.28
2022-10-23T05:09:41.784Z,8.63
2022-10-23T05:12:12.137Z,8.80
2022-10-23T05:14:42.516Z,9.55
2022-10-23T05:17:22.102Z,8.83
2022-10-23T05:19:55.371Z,7.85
2022-10-23T05:22:29.024Z,9.23
2022-10-23T05:25:01.369Z,8.33
2022-10-23T05:27:31.881Z,8.60
2022-10-23T05:30:02.597Z,9.38
2022-10-23T05:32:36.669Z,8.33
2022-10-23T05:35:10.944Z,8.58
2022-10-23T05:37:44.687Z,8.68
2022-10-23T05:40:15.131Z,9.13
2022-10-23T05:42:45.655Z,8.73
2022-10-23T05:45:16.460Z,12.45
2022-10-23T05:47:49.071Z,11.10
2022-10-23T05:50:22.749Z,10.70
2022-10-23T05:52:53.084Z,10.15
2022-10-23T05:55:23.479Z,9.48
2022-10-23T05:57:54.035Z,9.43
2022-10-23T06:00:24.365Z,10.18
2022-10-23T06:02:54.843Z,9.33
2022-10-23T06:05:25.224Z,9.20
2022-10-23T06:08:00.433Z,9.63
2022-10-23T06:10:32.523Z,9.78
2022-10-23T06:13:02.949Z,11.00
2022-10-23T06:15:33.456Z,9.68
2022-10-23T06:18:05.132Z,9.95
2022-10-23T06:20:39.881Z,9.75
2022-10-23T06:23:10.213Z,10.10
2022-10-23T06:25:40.640Z,9.05
2022-10-23T06:28:11.036Z,9.50
2022-10-23T06:30:41.451Z,8.80
2022-10-23T06:33:11.816Z,10.28
2022-10-23T06:35:42.142Z,10.05
2022-10-23T06:38:12.610Z,10.80
2022-10-23T06:40:42.961Z,9.80
2022-10-23T06:43:13.353Z,10.00
2022-10-23T06:45:43.790Z,10.48
2022-10-23T06:48:14.491Z,9.75
2022-10-23T06:50:44.933Z,10.30
2022-10-23T06:53:15.439Z,10.88
2022-10-23T06:55:46.640Z,9.70
2022-10-23T06:58:17.986Z,9.58
2022-10-23T07:00:48.471Z,9.70
2022-10-23T07:03:18.905Z,9.43
2022-10-23T07:05:49.319Z,9.80
2022-10-23T07:08:19.770Z,10.03
2022-10-23T07:10:50.222Z,10.08
2022-10-23T07:13:20.556Z,9.63
2022-10-23T07:15:51.633Z,10.18
2022-10-23T07:18:22.064Z,10.20
2022-10-23T07:20:55.560Z,12.68
2022-10-23T07:23:26.032Z,12.10
2022-10-23T07:25:56.337Z,10.05
2022-10-23T07:28:26.621Z,10.82
2022-10-23T07:31:00.544Z,10.38
2022-10-23T07:33:30.862Z,9.98
2022-10-23T07:36:01.457Z,10.03
2022-10-23T07:38:31.824Z,9.88
2022-10-23T07:41:02.639Z,11.18
2022-10-23T07:43:34.807Z,10.08
2022-10-23T07:46:05.261Z,10.43
2022-10-23T07:48:36.497Z,11.85
2022-10-23T07:51:14.606Z,11.70
2022-10-23T07:53:45.246Z,10.18
2022-10-23T07:56:18.758Z,10.15
2022-10-23T07:58:49.378Z,9.48
2022-10-23T08:01:22.801Z,10.88
2022-10-23T08:03:53.832Z,10.55
2022-10-23T08:06:24.345Z,9.63
2022-10-23T08:08:54.779Z,9.45
2022-10-23T08:11:28.030Z,9.58
2022-10-23T08:13:59.186Z,9.33
2022-10-23T08:16:29.556Z,9.65
2022-10-23T08:19:00.182Z,9.10
2022-10-23T08:21:31.004Z,8.93
2022-10-23T08:24:02.186Z,9.05
2022-10-23T08:26:32.731Z,9.45
2022-10-23T08:29:03.161Z,9.03
2022-10-23T08:31:33.563Z,9.08
2022-10-23T08:34:04.064Z,9.23
2022-10-23T08:36:36.363Z,9.20
2022-10-23T08:39:07.508Z,8.75
2022-10-23T08:41:43.370Z,12.88
2022-10-23T08:44:26.300Z,8.88
2022-10-23T08:47:21.037Z,8.43
2022-10-23T08:50:03.344Z,7.97
2022-10-23T08:52:42.863Z,7.50
2022-10-23T08:55:16.778Z,7.33
2022-10-23T08:57:50.602Z,6.97
2022-10-23T09:00:24.085Z,6.85
2022-10-23T09:02:56.214Z,6.35
2022-10-23T09:05:32.951Z,5.95
2022-10-23T09:08:06.395Z,8.28
2022-10-23T09:10:51.972Z,5.90
2022-10-23T09:13:31.115Z,5.45
2022-10-23T09:16:16.820Z,4.87
2022-10-23T09:18:49.330Z,5.05
2022-10-23T09:21:20.928Z,4.97
2022-10-23T09:23:51.305Z,5.17
2022-10-23T09:26:22.467Z,5.05
2022-10-23T09:28:56.333Z,4.65
2022-10-23T09:31:26.716Z,4.92
2022-10-23T09:34:02.334Z,6.40
2022-10-23T09:36:33.492Z,4.85
2022-10-23T09:39:03.880Z,5.78
2022-10-23T09:41:39.858Z,5.20
2022-10-23T09:44:20.135Z,5.72
2022-10-23T09:46:56.216Z,4.33
2022-10-23T09:49:29.917Z,4.90
2022-10-23T09:52:12.409Z,4.78
2022-10-23T09:55:01.020Z,4.60
2022-10-23T09:57:38.201Z,4.75
2022-10-23T10:00:17.866Z,6.20
2022-10-23T10:03:02.502Z,3.98
2022-10-23T10:05:38.230Z,3.77
2022-10-23T10:08:11.609Z,4.67
2022-10-23T10:10:53.911Z,3.83
2022-10-23T10:13:55.789Z,4.03
2022-10-23T10:16:35.209Z,3.80
2022-10-23T10:19:23.914Z,4.92
2022-10-23T10:22:13.809Z,5.37
2022-10-23T10:25:05.528Z,4.78
2022-10-23T10:27:42.044Z,4.72
2022-10-23T10:30:18.505Z,3.30
2022-10-23T10:33:00.720Z,3.12
2022-10-23T10:35:52.978Z,3.22
2022-10-23T10:38:46.120Z,3.08
2022-10-23T10:41:40.235Z,2.67
2022-10-23T10:44:34.904Z,2.33
2022-10-23T10:47:32.559Z,2.72
2022-10-23T10:50:20.616Z,2.72
2022-10-23T10:53:14.697Z,2.92
2022-10-23T10:55:53.749Z,3.45
2022-10-23T10:58:28.137Z,2.67
2022-10-23T11:01:01.983Z,2.37
2022-10-23T11:03:51.836Z,2.90
2022-10-23T11:06:25.270Z,3.12
2022-10-23T11:09:03.993Z,3.00
2022-10-23T11:11:41.180Z,2.92
2022-10-23T11:14:24.074Z,2.90
2022-10-23T11:17:27.782Z,4.70
2022-10-23T11:20:19.352Z,3.00
2022-10-23T11:23:10.467Z,3.30
2022-10-23T11:26:03.368Z,4.80
2022-10-23T11:29:00.982Z,3.10
2022-10-23T11:32:00.262Z,3.25
2022-10-23T11:35:05.684Z,2.62
2022-10-23T11:37:36.059Z,2.95
2022-10-23T11:40:12.362Z,2.67
2022-10-23T11:42:46.144Z,3.00
2022-10-23T11:45:38.350Z,3.20
2022-10-23T11:48:26.761Z,2.70
2022-10-23T11:50:59.090Z,2.90
2022-10-23T11:53:34.954Z,2.83
2022-10-23T11:56:08.341Z,2.87
2022-10-23T11:58:54.039Z,2.52
2022-10-23T12:01:36.634Z,2.90
2022-10-23T12:04:19.480Z,3.12
2022-10-23T12:06:55.839Z,2.58
2022-10-23T12:09:29.378Z,2.30
2022-10-23T12:15:15.844Z,2.45
2022-10-23T12:17:48.071Z,2.80
2022-10-23T12:20:30.478Z,2.40
2022-10-23T12:23:06.923Z,2.40
2022-10-23T12:25:55.508Z,2.58
2022-10-23T12:28:41.168Z,2.75
2022-10-23T12:31:29.878Z,2.65
2022-10-23T12:34:20.060Z,2.80
2022-10-23T12:37:24.841Z,2.40
2022-10-23T12:39:57.065Z,2.42
2022-10-23T12:42:29.311Z,6.00
2022-10-23T12:45:26.658Z,3.30
2022-10-23T12:47:57.078Z,2.45
2022-10-23T12:50:30.239Z,2.27
2022-10-23T12:53:07.524Z,2.15
2022-10-23T12:58:34.964Z,2.20
2022-10-23T13:01:07.732Z,2.12
2022-10-23T13:03:40.150Z,2.85
2022-10-23T13:06:12.413Z,2.58
2022-10-23T13:08:45.887Z,2.30
2022-10-23T13:11:19.566Z,3.00
2022-10-23T13:13:50.409Z,2.58
2022-10-23T13:16:23.551Z,2.87
2022-10-23T13:18:54.447Z,2.70
2022-10-23T13:21:28.645Z,2.55
2022-10-23T13:23:59.159Z,2.60
2022-10-23T13:26:44.452Z,2.75
2022-10-23T13:29:33.334Z,2.65
2022-10-23T13:32:13.774Z,3.00
2022-10-23T13:34:53.746Z,3.10
2022-10-23T13:37:25.131Z,3.08
2022-10-23T13:40:08.812Z,3.42
2022-10-23T13:42:45.013Z,3.22
2022-10-23T13:45:18.936Z,3.20
2022-10-23T13:47:49.524Z,3.17
2022-10-23T13:50:20.761Z,3.20
2022-10-23T13:52:51.145Z,3.20
2022-10-23T13:55:24.682Z,3.33
2022-10-23T13:57:56.299Z,3.12
2022-10-23T14:00:26.652Z,3.45
2022-10-23T14:02:56.961Z,2.87
2022-10-23T14:05:27.361Z,2.92
2022-10-23T14:07:58.042Z,4.62
2022-10-23T14:10:28.466Z,3.65
2022-10-23T14:12:58.953Z,2.72
2022-10-23T14:15:29.375Z,2.33
2022-10-23T14:18:01.531Z,3.10
2022-10-23T14:20:31.957Z,2.98
2022-10-23T14:23:02.422Z,2.60
2022-10-23T14:25:32.814Z,2.98
2022-10-23T14:28:03.265Z,3.50
2022-10-23T14:30:33.927Z,4.28
2022-10-23T14:33:04.657Z,3.17
2022-10-23T14:35:35.449Z,2.58
2022-10-23T14:38:05.816Z,3.30
2022-10-23T14:40:38.503Z,2.62
2022-10-23T14:43:08.822Z,2.52
2022-10-23T14:45:39.231Z,2.80
2022-10-23T14:48:09.658Z,2.72
2022-10-23T14:50:47.303Z,2.60
2022-10-23T14:53:17.891Z,2.77
2022-10-23T14:55:48.180Z,3.00
2022-10-23T14:58:18.479Z,2.60
2022-10-23T15:00:51.952Z,2.87
2022-10-23T15:03:22.398Z,2.90
2022-10-23T15:05:53.046Z,3.00
2022-10-23T15:08:24.300Z,3.12
2022-10-23T15:10:54.674Z,3.98
2022-10-23T15:13:25.125Z,5.85
2022-10-23T15:16:10.807Z,3.22
2022-10-23T15:18:41.333Z,3.30
2022-10-23T15:21:11.812Z,2.70
2022-10-23T15:23:44.956Z,4.33
2022-10-23T15:26:22.166Z,5.87
2022-10-23T15:28:58.571Z,6.62
2022-10-23T15:31:38.007Z,4.42
2022-10-23T15:34:13.784Z,3.47
2022-10-23T15:36:45.016Z,3.47
2022-10-23T15:39:17.936Z,3.35
2022-10-23T15:41:49.602Z,3.75
2022-10-23T15:44:21.143Z,3.37
2022-10-23T15:46:52.497Z,3.50
2022-10-23T15:49:22.799Z,3.42
2022-10-23T15:51:54.307Z,3.55
2022-10-23T15:54:28.103Z,4.20
2022-10-23T15:56:57.325Z,3.45
2022-10-23T15:59:28.707Z,3.20
2022-10-23T16:02:01.810Z,3.70
2022-10-23T16:04:33.145Z,3.85
2022-10-23T16:07:15.020Z,3.62
2022-10-23T16:09:45.811Z,3.55
2022-10-23T16:12:17.196Z,3.58
2022-10-23T16:14:47.709Z,4.12
2022-10-23T16:17:19.375Z,4.10
2022-10-23T16:19:49.770Z,3.60
2022-10-23T16:22:20.239Z,3.50
2022-10-23T16:24:50.555Z,3.80
2022-10-23T16:27:21.000Z,4.10
2022-10-23T16:29:51.475Z,4.30
2022-10-23T16:32:21.996Z,3.67
2022-10-23T16:34:52.464Z,3.62
2022-10-23T16:37:22.889Z,3.40
2022-10-23T16:39:53.298Z,3.80
2022-10-23T16:42:23.916Z,4.30
2022-10-23T16:44:56.660Z,4.22
2022-10-23T16:47:27.131Z,4.90
2022-10-23T16:49:57.703Z,4.78
2022-10-23T16:52:28.972Z,5.65
2022-10-23T16:54:59.501Z,4.75
2022-10-23T16:57:29.813Z,5.20
2022-10-23T17:00:00.299Z,5.40
2022-10-23T17:02:30.765Z,5.58
2022-10-23T17:05:01.436Z,5.58
2022-10-23T17:07:34.893Z,5.15
2022-10-23T17:10:05.829Z,5.62
2022-10-23T17:12:37.224Z,5.47
2022-10-23T17:15:08.780Z,5.40
2022-10-23T17:17:39.264Z,5.20
2022-10-23T17:20:10.632Z,5.33
2022-10-23T17:22:41.029Z,5.42
2022-10-23T17:25:12.656Z,6.35
2022-10-23T17:27:43.646Z,9.65
2022-10-23T17:30:14.494Z,5.22
2022-10-23T17:32:45.198Z,6.05
2022-10-23T17:35:16.020Z,5.35
2022-10-23T17:37:46.660Z,9.13
2022-10-23T17:40:24.752Z,6.15
2022-10-23T17:42:52.479Z,5.67
2022-10-23T17:45:23.028Z,5.33
2022-10-23T17:47:53.885Z,5.17
2022-10-23T17:50:24.447Z,5.42
2022-10-23T17:52:55.061Z,4.97
2022-10-23T17:55:27.083Z,5.70
2022-10-23T17:57:59.217Z,4.95
2022-10-23T18:00:29.783Z,5.20
2022-10-23T18:03:00.130Z,4.90
2022-10-23T18:05:33.357Z,5.05
2022-10-23T18:08:04.053Z,5.08
2022-10-23T18:10:36.916Z,4.60
2022-10-23T18:13:07.654Z,4.60
2022-10-23T18:15:39.656Z,4.75
2022-10-23T18:18:11.731Z,4.85
2022-10-23T18:20:42.309Z,4.78
2022-10-23T18:23:14.307Z,4.95
2022-10-23T18:25:46.019Z,5.00
2022-10-23T18:28:16.401Z,5.25
2022-10-23T18:30:48.132Z,4.72
2022-10-23T18:33:20.082Z,5.83
2022-10-23T18:35:50.870Z,5.33
2022-10-23T18:38:21.528Z,4.72
2022-10-23T18:40:57.268Z,4.30
2022-10-23T18:43:43.172Z,5.08
2022-10-23T18:46:02.366Z,4.80
2022-10-23T18:48:36.277Z,5.03
2022-10-23T18:51:11.149Z,4.72
2022-10-23T18:53:40.681Z,5.05
2022-10-23T18:56:11.347Z,5.90
2022-10-23T18:58:42.157Z,4.90
2022-10-23T19:01:14.535Z,4.78
2022-10-23T19:03:45.489Z,6.80
2022-10-23T19:06:17.053Z,8.13
2022-10-23T19:08:48.452Z,4.85
2022-10-23T19:11:21.259Z,5.10
2022-10-23T19:13:52.095Z,4.90
2022-10-23T19:16:42.694Z,4.80
2022-10-23T19:19:22.015Z,5.40
2022-10-23T19:21:54.009Z,5.37
2022-10-23T19:24:29.462Z,5.17
2022-10-23T19:27:01.912Z,4.87
2022-10-23T19:29:33.307Z,5.00
2022-10-23T19:32:04.260Z,4.72
2022-10-23T19:34:35.268Z,5.12
2022-10-23T19:37:05.932Z,4.65
2022-10-23T19:39:36.725Z,4.80
2022-10-23T19:42:08.743Z,5.78
2022-10-23T19:44:39.367Z,5.62
2022-10-23T19:47:09.879Z,5.85
2022-10-23T19:49:40.661Z,5.42
2022-10-23T19:52:11.284Z,5.47
2022-10-23T19:54:41.901Z,5.28
2022-10-23T19:57:13.128Z,5.08
2022-10-23T19:59:43.956Z,5.85
2022-10-23T20:02:15.120Z,5.50
2022-10-23T20:04:46.057Z,5.42
2022-10-23T20:07:16.718Z,5.50
2022-10-23T20:09:47.329Z,5.58
2022-10-23T20:12:17.798Z,6.00
2022-10-23T20:14:48.270Z,5.75
2022-10-23T20:17:18.766Z,5.50
2022-10-23T20:19:49.980Z,5.97
2022-10-23T20:22:21.254Z,6.00
2022-10-23T20:24:51.739Z,5.40
2022-10-23T20:27:22.268Z,6.58
2022-10-23T20:29:52.841Z,5.40
2022-10-23T20:32:23.469Z,6.40
2022-10-23T20:34:54.125Z,5.97
2022-10-23T20:37:24.602Z,6.50
2022-10-23T20:39:56.443Z,5.97
2022-10-23T20:42:26.924Z,6.10
2022-10-23T20:44:57.441Z,5.10
2022-10-23T20:47:27.803Z,6.28
2022-10-23T20:49:58.265Z,5.70
2022-10-23T20:52:30.110Z,5.58
2022-10-23T20:55:00.800Z,5.45
2022-10-23T20:57:31.478Z,6.10
2022-10-23T21:00:03.132Z,5.90
2022-10-23T21:02:33.835Z,6.17
2022-10-23T21:05:04.617Z,6.08
2022-10-23T21:07:35.165Z,6.00
2022-10-23T21:10:06.719Z,5.90
2022-10-23T21:12:38.455Z,6.30
2022-10-23T21:15:10.214Z,5.40
2022-10-23T21:17:41.231Z,6.67
2022-10-23T21:20:12.136Z,5.97
2022-10-23T21:22:43.077Z,6.37
2022-10-23T21:25:15.441Z,7.00
2022-10-23T21:27:46.633Z,6.35
2022-10-23T21:30:17.416Z,6.62
2022-10-23T21:32:47.845Z,6.30
2022-10-23T21:35:18.591Z,6.78
2022-10-23T21:37:49.065Z,6.75
2022-10-23T21:40:19.517Z,6.12
2022-10-23T21:42:50.054Z,6.62
2022-10-23T21:45:21.066Z,6.17
2022-10-23T21:47:51.443Z,6.80
2022-10-23T21:50:21.756Z,6.75
2022-10-23T21:52:53.233Z,6.45
2022-10-23T21:55:29.943Z,6.78
2022-10-23T21:58:00.332Z,6.90
2022-10-23T22:00:30.719Z,6.80
2022-10-23T22:03:01.124Z,6.58
2022-10-23T22:05:31.544Z,6.97
2022-10-23T22:08:01.914Z,6.92
2022-10-23T22:10:32.244Z,7.12
2022-10-23T22:13:02.556Z,7.17
2022-10-23T22:15:33.003Z,7.17
2022-10-23T22:18:03.563Z,6.80
2022-10-23T22:20:33.964Z,6.78
2022-10-23T22:23:04.359Z,7.15
2022-10-23T22:25:34.784Z,6.95
2022-10-23T22:28:05.227Z,7.00
2022-10-23T22:30:37.550Z,7.15
2022-10-23T22:33:07.949Z,7.67
2022-10-23T22:35:38.332Z,7.87
2022-10-23T22:38:08.715Z,7.58
2022-10-23T22:40:43.064Z,7.70
2022-10-23T22:43:11.081Z,7.25
2022-10-23T22:45:41.474Z,7.03
2022-10-23T22:48:11.980Z,6.83
2022-10-23T22:50:42.385Z,7.53
2022-10-23T22:53:12.794Z,7.97
2022-10-23T22:55:44.014Z,8.88
2022-10-23T22:58:14.466Z,8.15
2022-10-23T23:00:44.904Z,7.97
2022-10-23T23:03:15.461Z,8.28
2022-10-23T23:05:48.601Z,8.93
2022-10-23T23:08:18.960Z,7.47
2022-10-23T23:10:59.151Z,8.40
2022-10-23T23:13:29.868Z,8.20
2022-10-23T23:16:00.857Z,7.92
2022-10-23T23:18:31.688Z,8.28
2022-10-23T23:21:06.703Z,8.13
2022-10-23T23:23:37.778Z,9.55
2022-10-23T23:26:09.238Z,9.95
2022-10-23T23:28:39.628Z,9.30
2022-10-23T23:31:15.030Z,9.05
2022-10-23T23:33:45.942Z,9.48
2022-10-23T23:36:19.339Z,9.70
2022-10-23T23:38:50.286Z,9.00
2022-10-23T23:41:22.241Z,9.03
2022-10-23T23:43:54.938Z,9.63
2022-10-23T23:46:27.002Z,9.85
2022-10-23T23:48:57.310Z,9.60
2022-10-23T23:51:27.934Z,9.63
2022-10-23T23:53:58.266Z,10.05
2022-10-23T23:56:28.745Z,9.18
2022-10-23T23:58:59.347Z,9.18
